Time;durP1;ratioP1;P1;durP2;ratioP2;P2;SDS_P1;SDS_P2;PMS_P1;PMS_P2;Temp;Humidity;BMP_temperature;BMP_pressure;BME280_temperature;BME280_humidity;BME280_pressure;Samples;Min_cycle;Max_cycle;Signal;HPM_P1;HPM_P2
2022/03/27 00:01:31;;;;;;;156.75;70.38;;;;;;;21.53;100.00;98126.66;4944338;29;20114;-67
2022/03/27 00:04:13;;;;;;;155.47;71.90;;;;;;;21.55;100.00;98134.41;4951274;29;20111;-66
2022/03/27 00:07:09;;;;;;;153.75;69.78;;;;;;;21.54;100.00;98133.56;4951135;29;20059;-67
2022/03/27 00:09:44;;;;;;;152.10;71.15;;;;;;;21.55;100.00;98134.41;4951300;28;20337;-66
2022/03/27 00:12:40;;;;;;;156.40;70.22;;;;;;;21.52;100.00;98140.72;4951155;29;20130;-66
2022/03/27 00:15:15;;;;;;;149.23;71.40;;;;;;;21.50;100.00;98136.56;4950744;29;20051;-66
2022/03/27 00:18:12;;;;;;;161.90;72.47;;;;;;;21.46;100.00;98141.25;4937217;28;20063;-66
2022/03/27 00:20:59;;;;;;;146.48;70.63;;;;;;;21.52;100.00;98150.38;4950409;29;20055;-66
2022/03/27 00:23:48;;;;;;;186.43;75.20;;;;;;;21.43;100.00;98140.66;4948390;28;20065;-66
2022/03/27 00:26:30;;;;;;;156.73;72.93;;;;;;;21.43;100.00;98144.09;4948475;29;20051;-66
2022/03/27 00:29:21;;;;;;;158.20;74.05;;;;;;;21.43;100.00;98144.09;4935879;29;20482;-66
2022/03/27 00:32:03;;;;;;;153.90;75.78;;;;;;;21.46;100.00;98140.41;4916058;29;20574;-65
2022/03/27 00:34:55;;;;;;;164.85;74.47;;;;;;;21.44;100.00;98142.31;4931924;29;20060;-66
2022/03/27 00:37:39;;;;;;;185.10;77.65;;;;;;;21.42;100.00;98141.59;4917480;29;20044;-66
2022/03/27 00:40:27;;;;;;;163.60;78.97;;;;;;;21.40;100.00;98141.72;4931600;29;20054;-67
2022/03/27 00:43:09;;;;;;;181.52;77.03;;;;;;;21.39;100.00;98145.34;4940254;29;20070;-66
2022/03/27 00:45:57;;;;;;;163.77;78.88;;;;;;;21.37;100.00;98144.63;4948847;28;20220;-67
2022/03/27 00:48:39;;;;;;;167.43;76.22;;;;;;;21.41;100.00;98146.03;4947499;28;20067;-66
2022/03/27 00:51:28;;;;;;;160.93;77.97;;;;;;;21.43;100.00;98149.34;4943810;28;20114;-66
2022/03/27 00:54:10;;;;;;;173.50;76.72;;;;;;;21.46;100.00;98151.72;4948895;29;20117;-66
2022/03/27 00:56:59;;;;;;;170.50;78.53;;;;;;;21.39;100.00;98145.34;4950779;29;20483;-67
2022/03/27 00:59:41;;;;;;;158.18;76.28;;;;;;;21.43;100.00;98156.38;4932074;29;20079;-67
2022/03/27 01:02:32;;;;;;;190.77;81.95;;;;;;;21.36;100.00;98162.13;4932406;29;20096;-67
2022/03/27 01:05:14;;;;;;;;;;;;;;;21.33;100.00;98162.38;4931506;29;20066;-66
2022/03/27 01:08:05;;;;;;;182.98;80.18;;;;;;;21.38;100.00;98164.63;4939149;29;19932;-66
2022/03/27 01:10:47;;;;;;;173.95;82.72;;;;;;;21.39;100.00;98159.25;4933453;29;20790;-66
2022/03/27 01:13:36;;;;;;;182.18;84.55;;;;;;;21.42;100.00;98162.56;4949659;29;20054;-67
2022/03/27 01:16:51;;;;;;;193.32;86.22;;;;;;;21.43;100.00;98166.88;4949447;28;20047;-66
2022/03/27 01:19:52;;;;;;;166.95;82.28;;;;;;;21.44;100.00;98158.88;4949248;28;20066;-67
2022/03/27 01:22:28;;;;;;;173.90;84.20;;;;;;;21.47;100.00;98163.84;4948043;29;20094;-66
2022/03/27 01:25:23;;;;;;;163.25;82.82;;;;;;;21.55;100.00;98161.44;4965886;28;20073;-66
2022/03/27 01:27:58;;;;;;;182.93;84.03;;;;;;;21.58;100.00;98171.66;4945094;29;20055;-68
2022/03/27 01:30:53;;;;;;;172.32;83.45;;;;;;;21.65;100.00;98172.81;4963813;28;20051;-65
2022/03/27 01:33:28;;;;;;;167.50;82.88;;;;;;;21.73;100.00;98174.81;4960437;28;20546;-64
2022/03/27 01:36:28;;;;;;;170.23;83.18;;;;;;;21.80;100.00;98173.31;4952323;28;20055;-65
2022/03/27 01:39:17;;;;;;;170.70;83.53;;;;;;;21.89;100.00;98174.34;4946018;28;20051;-67
2022/03/27 01:42:12;;;;;;;174.98;83.32;;;;;;;22.00;100.00;98182.19;4954421;28;20057;-65
2022/03/27 01:44:47;;;;;;;164.65;83.88;;;;;;;22.08;100.00;98185.00;4949379;28;20059;-65
2022/03/27 01:47:43;;;;;;;159.55;83.00;;;;;;;22.17;100.00;98189.47;4930679;28;20066;-65
2022/03/27 01:50:18;;;;;;;171.57;81.50;;;;;;;22.30;100.00;98184.81;4946278;29;20463;-67
2022/03/27 01:53:13;;;;;;;178.07;84.65;;;;;;;22.56;100.00;98200.13;4960133;28;20224;-67
2022/03/27 01:55:48;;;;;;;162.88;81.50;;;;;;;22.87;100.00;98201.75;4968027;28;20057;-67
2022/03/27 01:58:47;;;;;;;164.52;78.22;;;;;;;23.21;100.00;98205.72;4953103;28;20043;-66
2022/03/27 02:01:22;;;;;;;172.68;84.45;;;;;;;23.52;100.00;98213.50;4959187;29;20055;-66
2022/03/27 02:04:17;;;;;;;180.55;83.75;;;;;;;23.81;100.00;98218.72;4939715;29;20113;-66
2022/03/27 02:06:53;;;;;;;164.50;80.55;;;;;;;24.20;100.00;98220.34;4933491;29;20466;-67
2022/03/27 02:09:48;;;;;;;162.23;81.72;;;;;;;24.41;100.00;98214.88;4949108;29;20166;-64
2022/03/27 02:12:23;;;;;;;165.40;80.18;;;;;;;24.64;100.00;98229.34;4943834;28;20047;-65
2022/03/27 02:15:18;;;;;;;176.18;81.50;;;;;;;24.79;99.93;98225.25;4931075;29;20067;-64
2022/03/27 02:18:06;;;;;;;167.32;82.60;;;;;;;24.85;99.59;98230.91;4635579;28;9233127;-65
2022/03/27 02:21:03;;;;;;;159.70;82.55;;;;;;;24.94;98.90;98240.59;4932351;29;20098;-64
2022/03/27 02:23:38;;;;;;;169.75;85.40;;;;;;;25.01;97.71;98246.94;4961483;28;20055;-64
2022/03/27 02:26:32;;;;;;;173.82;84.78;;;;;;;25.10;96.48;98252.16;4949123;29;20066;-64
2022/03/27 02:29:07;;;;;;;173.07;82.30;;;;;;;25.14;96.00;98250.88;4948437;29;20534;-65
2022/03/27 02:32:02;;;;;;;163.05;85.30;;;;;;;25.25;95.52;98259.56;4939612;28;20050;-65
2022/03/27 02:34:37;;;;;;;170.27;83.82;;;;;;;25.36;96.53;98260.19;4945006;28;20050;-66
2022/03/27 02:37:32;;;;;;;175.35;86.57;;;;;;;25.30;97.16;98268.69;4951460;28;20043;-65
2022/03/27 02:40:08;;;;;;;174.70;86.18;;;;;;;25.29;96.17;98274.97;4942951;28;20124;-64
2022/03/27 02:43:03;;;;;;;197.82;89.60;;;;;;;25.16;90.19;98267.38;4949855;28;20058;-65
2022/03/27 02:45:40;;;;;;;180.13;90.63;;;;;;;25.12;91.75;98273.94;4947579;28;20444;-64
2022/03/27 02:48:35;;;;;;;180.43;90.22;;;;;;;25.43;93.75;98270.97;4944256;29;20114;-64
2022/03/27 02:51:10;;;;;;;187.80;91.20;;;;;;;25.53;93.84;98277.84;4946230;29;20165;-65
2022/03/27 02:54:06;;;;;;;209.55;100.03;;;;;;;25.37;84.90;98280.31;4929640;29;20048;-65
2022/03/27 02:56:41;;;;;;;183.48;97.10;;;;;;;25.64;92.21;98283.91;4930693;29;20428;-64
2022/03/27 02:59:30;;;;;;;229.60;105.25;;;;;;;25.71;90.28;98280.50;4947221;28;20059;-64
2022/03/27 03:02:13;;;;;;;214.60;102.17;;;;;;;25.74;85.65;98290.75;4954376;28;20059;-64
2022/03/27 03:05:09;;;;;;;210.73;100.15;;;;;;;25.86;86.87;98299.31;4967618;28;20133;-65
2022/03/27 03:07:45;;;;;;;232.20;107.55;;;;;;;25.93;83.89;98300.34;4952152;28;20066;-65
2022/03/27 03:10:40;;;;;;;202.73;105.00;;;;;;;26.05;90.38;98293.84;4947470;29;20055;-66
2022/03/27 03:13:16;;;;;;;219.57;103.70;;;;;;;26.14;92.47;98290.28;4946985;28;20491;-64
2022/03/27 03:16:06;;;;;;;229.30;106.03;;;;;;;26.18;86.62;98296.91;4948363;29;20055;-64
2022/03/27 03:18:48;;;;;;;;;;;;;;;26.22;84.89;98294.78;4948629;28;20312;-64
2022/03/27 03:21:36;;;;;;;229.80;108.68;;;;;;;26.28;78.05;98304.75;4946251;28;19930;-64
2022/03/27 03:24:18;;;;;;;239.55;111.15;;;;;;;26.32;74.08;98306.13;4956547;28;20135;-64
2022/03/27 03:27:07;;;;;;;220.85;101.50;;;;;;;26.45;74.30;98306.53;4967319;28;20054;-65
2022/03/27 03:29:49;;;;;;;211.93;100.72;;;;;;;26.59;81.57;98305.13;4967326;28;20077;-65
2022/03/27 03:32:39;;;;;;;193.02;97.95;;;;;;;26.71;80.57;98303.91;4947237;28;20051;-65
2022/03/27 03:35:21;;;;;;;202.20;97.10;;;;;;;26.81;76.66;98317.84;4952643;28;20047;-65
2022/03/27 03:38:29;;;;;;;190.82;95.35;;;;;;;26.98;76.29;98311.66;4945457;28;20074;-66
2022/03/27 03:41:05;;;;;;;182.25;96.22;;;;;;;27.12;77.06;98317.34;4948581;28;20066;-65
2022/03/27 03:43:54;;;;;;;205.02;95.57;;;;;;;27.22;75.06;98318.84;4950474;28;20418;-65
2022/03/27 03:46:36;;;;;;;204.30;99.33;;;;;;;27.32;72.82;98327.50;4944166;29;20057;-65
2022/03/27 03:49:31;;;;;;;201.35;99.10;;;;;;;27.49;74.04;98327.53;4944055;29;20378;-65
2022/03/27 03:52:07;;;;;;;181.23;95.75;;;;;;;27.63;75.64;98324.28;4951309;28;20057;-65
2022/03/27 03:55:02;;;;;;;190.90;97.73;;;;;;;27.86;68.33;98329.81;4952860;28;20051;-65
2022/03/27 03:57:38;;;;;;;201.68;98.78;;;;;;;27.99;68.07;98330.16;4947507;29;20737;-65
2022/03/27 04:00:36;;;;;;;214.98;105.47;;;;;;;28.15;66.19;98336.31;4948080;28;20505;-65
2022/03/27 04:03:11;;;;;;;223.95;107.38;;;;;;;28.31;65.96;98330.19;4948752;28;20106;-65
2022/03/27 04:06:07;;;;;;;216.20;110.38;;;;;;;28.60;64.42;98328.81;4958270;28;20061;-65
2022/03/27 04:08:42;;;;;;;221.70;106.65;;;;;;;28.79;58.85;98345.22;4947264;29;20043;-65
2022/03/27 04:11:36;;;;;;;220.20;109.43;;;;;;;29.12;59.59;98339.84;4947994;28;20043;-65
2022/03/27 04:14:12;;;;;;;233.82;114.68;;;;;;;29.45;62.27;98346.69;4944515;29;20047;-67
2022/03/27 04:17:07;;;;;;;245.68;114.55;;;;;;;29.74;60.17;98348.66;4946245;28;20050;-65
2022/03/27 04:19:56;;;;;;;236.30;114.25;;;;;;;30.13;55.69;98345.94;4951566;28;20134;-65
2022/03/27 04:22:49;;;;;;;231.02;110.30;;;;;;;30.55;53.41;98356.09;4932555;29;20051;-66
2022/03/27 04:25:31;;;;;;;203.13;95.53;;;;;;;30.71;49.47;98358.59;4932791;29;20047;-66
2022/03/27 04:28:21;;;;;;;204.90;97.55;;;;;;;31.08;49.92;98362.22;4950105;28;20129;-66
2022/03/27 04:31:03;;;;;;;213.55;106.43;;;;;;;31.13;49.87;98359.84;4949039;29;20055;-67
2022/03/27 04:33:52;;;;;;;192.88;98.45;;;;;;;31.95;50.35;98363.06;4962877;28;20209;-66
2022/03/27 04:36:34;;;;;;;209.77;105.60;;;;;;;32.23;49.32;98364.00;4945636;28;20062;-66
2022/03/27 04:39:23;;;;;;;215.45;104.80;;;;;;;32.51;47.36;98360.53;4946109;28;20134;-67
2022/03/27 04:42:06;;;;;;;220.77;102.35;;;;;;;32.80;48.63;98365.72;4943160;28;20047;-66
2022/03/27 04:44:55;;;;;;;197.95;100.40;;;;;;;32.81;45.78;98370.03;4944237;28;20220;-66
2022/03/27 04:47:44;;;;;;;188.05;94.40;;;;;;;33.47;48.38;98370.41;4949608;29;20051;-67
2022/03/27 04:50:33;;;;;;;154.90;77.20;;;;;;;33.21;40.50;98367.63;4948855;29;20370;-66
2022/03/27 04:53:16;;;;;;;164.18;80.82;;;;;;;33.66;49.93;98363.50;4949269;28;20062;-66
2022/03/27 04:56:05;;;;;;;155.25;77.95;;;;;;;34.09;43.08;98369.38;4931418;29;20083;-67
2022/03/27 04:58:46;;;;;;;152.93;78.55;;;;;;;34.19;43.59;98372.50;4945708;29;20112;-66
2022/03/27 05:01:34;;;;;;;161.05;77.55;;;;;;;34.38;45.11;98361.03;4949388;29;20641;-66
2022/03/27 05:04:16;;;;;;;158.88;78.50;;;;;;;34.80;44.20;98367.00;4949982;28;20541;-66
2022/03/27 05:07:04;;;;;;;158.93;74.45;;;;;;;34.72;42.38;98369.88;4950030;28;20047;-66
2022/03/27 05:09:46;;;;;;;152.20;69.80;;;;;;;34.54;39.16;98375.84;4948550;29;20055;-67
2022/03/27 05:12:34;;;;;;;133.02;69.20;;;;;;;35.11;41.82;98377.03;4949390;29;20058;-66
2022/03/27 05:15:16;;;;;;;128.13;60.00;;;;;;;35.15;41.52;98376.38;4944985;28;20094;-67
2022/03/27 05:18:11;;;;;;;126.97;55.97;;;;;;;34.99;38.64;98370.66;4950053;28;20055;-70
2022/03/27 05:20:46;;;;;;;106.30;55.08;;;;;;;35.24;46.01;98375.16;4948976;29;20051;-68
2022/03/27 05:23:35;;;;;;;120.20;56.90;;;;;;;35.40;44.78;98375.72;4959102;28;20234;-69
2022/03/27 05:26:17;;;;;;;122.82;54.72;;;;;;;35.06;35.66;98388.34;4949468;29;20130;-69
2022/03/27 05:29:08;;;;;;;107.50;52.97;;;;;;;35.25;36.85;98376.81;4949613;29;20110;-70
2022/03/27 05:31:49;;;;;;;;;;;;;;;35.18;38.65;98381.34;4951679;28;20046;-68
2022/03/27 05:34:38;;;;;;;108.90;53.42;;;;;;;35.35;38.21;98376.38;4948388;28;20017;-68
2022/03/27 05:37:20;;;;;;;107.82;55.35;;;;;;;35.25;37.24;98379.50;4947322;28;20051;-68
2022/03/27 05:40:25;;;;;;;115.03;52.58;;;;;;;35.33;36.16;98380.28;4927221;28;20691;-66
2022/03/27 05:43:13;;;;;;;109.15;53.75;;;;;;;35.01;35.74;98374.78;4906644;29;20039;-67
2022/03/27 05:46:04;;;;;;;107.93;50.05;;;;;;;35.20;37.20;98379.25;4920033;28;20118;-67
2022/03/27 05:48:48;;;;;;;100.47;43.80;;;;;;;35.43;35.23;98378.00;4933178;28;20051;-67
2022/03/27 05:51:36;;;;;;;74.05;32.88;;;;;;;35.68;34.32;98374.34;4915532;29;20103;-67
2022/03/27 05:54:18;;;;;;;75.70;35.47;;;;;;;35.66;35.32;98370.25;4917353;29;20538;-66
2022/03/27 05:57:12;;;;;;;73.15;35.78;;;;;;;35.68;31.48;98370.84;4930042;28;20065;-67
2022/03/27 06:00:00;;;;;;;96.72;45.72;;;;;;;35.68;33.06;98369.00;4939589;28;20047;-67
2022/03/27 06:02:43;;;;;;;105.18;44.58;;;;;;;35.70;33.48;98368.78;4944240;29;20051;-67
2022/03/27 06:05:33;;;;;;;89.97;42.42;;;;;;;35.56;33.78;98351.94;4948228;28;20142;-66
2022/03/27 06:08:15;;;;;;;97.78;40.40;;;;;;;35.77;38.02;98350.00;4945510;28;20043;-67
2022/03/27 06:11:05;;;;;;;94.28;43.45;;;;;;;35.45;38.84;98349.94;4946844;29;20133;-66
2022/03/27 06:13:46;;;;;;;90.85;44.03;;;;;;;35.42;34.95;98349.53;4946513;29;20050;-66
2022/03/27 06:16:34;;;;;;;85.03;42.08;;;;;;;35.63;37.43;98352.72;4932339;29;20117;-66
2022/03/27 06:19:30;;;;;;;96.82;38.53;;;;;;;35.72;35.61;98353.34;4947821;28;20070;-67
2022/03/27 06:22:05;;;;;;;89.15;37.90;;;;;;;35.85;33.67;98358.63;4947315;29;20050;-66
2022/03/27 06:25:01;;;;;;;94.75;43.20;;;;;;;35.67;29.97;98350.47;4946092;29;20062;-67
2022/03/27 06:27:37;;;;;;;88.20;38.95;;;;;;;35.84;35.48;98348.91;4947078;29;20505;-67
2022/03/27 06:30:36;;;;;;;87.80;39.17;;;;;;;35.67;32.31;98342.41;4936068;28;20627;-66
2022/03/27 06:33:11;;;;;;;97.03;38.70;;;;;;;35.77;35.68;98333.91;4946489;28;20683;-68
2022/03/27 06:36:07;;;;;;;93.13;38.17;;;;;;;35.62;32.20;98334.19;4945277;28;20047;-67
2022/03/27 06:38:42;;;;;;;79.60;36.90;;;;;;;35.63;32.31;98336.66;4926004;29;20054;-66
2022/03/27 06:41:30;;;;;;;73.18;31.65;;;;;;;35.70;32.79;98339.28;4922672;29;20066;-66
2022/03/27 06:44:13;;;;;;;59.45;27.13;;;;;;;35.77;31.42;98331.22;4949410;28;20051;-67
2022/03/27 06:47:01;;;;;;;65.13;24.15;;;;;;;35.64;29.60;98340.16;4944759;28;20058;-65
2022/03/27 06:49:43;;;;;;;52.25;20.73;;;;;;;35.54;29.62;98334.41;4944271;28;20640;-65
2022/03/27 06:52:39;;;;;;;50.53;19.40;;;;;;;35.36;26.84;98337.00;4945148;29;20047;-66
2022/03/27 06:55:16;;;;;;;41.95;17.10;;;;;;;35.68;31.46;98327.94;4927489;29;20419;-65
2022/03/27 06:58:06;;;;;;;49.58;20.10;;;;;;;35.61;30.54;98330.66;4947019;29;20130;-68
2022/03/27 07:04:10;;;;;;;50.75;19.70;;;;;;;35.66;31.24;98322.00;4948378;29;20051;-67
2022/03/27 07:06:44;;;;;;;53.53;20.15;;;;;;;35.53;27.61;98319.38;4946915;29;20666;-65
2022/03/27 07:09:33;;;;;;;60.33;23.88;;;;;;;35.41;29.37;98313.06;4945877;28;20315;-65
2022/03/27 07:12:19;;;;;;;61.58;22.75;;;;;;;35.56;33.50;98302.88;4944912;29;20047;-64
2022/03/27 07:15:09;;;;;;;56.35;19.92;;;;;;;35.56;27.16;98305.56;4945565;29;20096;-65
2022/03/27 07:18:05;;;;;;;45.42;16.88;;;;;;;35.52;26.60;98299.00;4929697;28;20051;-65
2022/03/27 07:21:01;;;;;;;43.60;15.38;;;;;;;35.60;29.88;98296.06;4932462;29;20054;-64
2022/03/27 07:23:36;;;;;;;52.40;17.27;;;;;;;35.66;30.61;98285.28;4933931;29;20725;-65
2022/03/27 07:26:25;;;;;;;43.55;17.38;;;;;;;35.61;29.30;98281.59;4912433;29;20062;-65
2022/03/27 07:29:09;;;;;;;42.95;17.75;;;;;;;35.46;27.33;98283.75;4938117;29;20588;-65
2022/03/27 07:31:58;;;;;;;42.40;17.20;;;;;;;35.47;25.49;98280.84;4930756;29;20376;-64
2022/03/27 07:34:50;;;;;;;45.22;17.20;;;;;;;35.55;31.37;98261.84;4928611;29;20055;-64
2022/03/27 07:37:39;;;;;;;49.40;17.95;;;;;;;35.51;31.13;98257.97;4926806;29;20568;-65
2022/03/27 07:40:21;;;;;;;58.47;21.20;;;;;;;35.39;31.63;98261.53;4932948;29;20055;-65
2022/03/27 07:43:18;;;;;;;50.13;20.95;;;;;;;35.27;29.07;98266.75;4927031;29;20055;-65
2022/03/27 07:45:54;;;;;;;53.05;19.75;;;;;;;35.11;26.29;98262.69;4913511;29;20131;-65
2022/03/27 07:48:43;;;;;;;45.63;20.05;;;;;;;35.24;30.12;98261.81;4937107;29;20110;-65
2022/03/27 07:51:25;;;;;;;46.90;18.15;;;;;;;35.25;28.20;98260.78;4933467;29;20051;-66
2022/03/27 07:54:22;;;;;;;47.80;17.00;;;;;;;35.33;30.36;98262.38;4923776;29;20127;-67
2022/03/27 07:56:56;;;;;;;31.85;15.30;;;;;;;35.12;24.41;98261.63;4932539;29;20051;-68
2022/03/27 07:59:45;;;;;;;31.45;13.05;;;;;;;35.21;25.56;98264.88;4932925;29;20055;-66
2022/03/27 08:02:27;;;;;;;36.78;11.48;;;;;;;35.32;22.87;98258.06;4935512;29;20047;-66
2022/03/27 08:05:16;;;;;;;39.47;13.43;;;;;;;35.32;25.68;98250.03;4918506;29;20139;-65
2022/03/27 08:07:58;;;;;;;46.97;15.55;;;;;;;35.28;25.21;98253.13;4914845;29;20052;-66
2022/03/27 08:10:47;;;;;;;34.63;12.73;;;;;;;35.25;24.82;98242.03;4932299;29;20052;-65
2022/03/27 08:13:29;;;;;;;33.20;11.32;;;;;;;35.26;28.54;98246.34;4934723;29;20464;-67
2022/03/27 08:16:26;;;;;;;31.17;11.10;;;;;;;35.23;25.87;98252.94;4933083;29;20507;-66
2022/03/27 08:19:14;;;;;;;28.85;9.13;;;;;;;35.26;26.40;98232.94;4943270;29;20058;-65
2022/03/27 08:22:03;;;;;;;26.88;8.98;;;;;;;35.30;28.71;98226.94;4952534;28;20067;-65
2022/03/27 08:24:45;;;;;;;29.95;8.50;;;;;;;35.24;23.86;98232.34;4953583;28;20714;-66
2022/03/27 08:27:31;;;;;;;27.58;7.50;;;;;;;35.23;25.07;98220.78;4947485;28;20059;-66
2022/03/27 08:30:20;;;;;;;23.85;7.35;;;;;;;35.14;22.10;98223.91;4945153;28;20138;-66
2022/03/27 08:33:03;;;;;;;21.55;6.15;;;;;;;34.88;21.04;98216.84;4914660;29;20067;-66
2022/03/27 08:35:52;;;;;;;26.63;6.88;;;;;;;34.92;24.83;98201.97;4947270;29;20051;-65
2022/03/27 08:38:41;;;;;;;27.88;7.13;;;;;;;34.80;23.39;98215.19;4948139;28;20137;-66
2022/03/27 08:41:23;;;;;;;29.85;8.98;;;;;;;34.72;26.11;98202.00;4945774;28;20047;-65
2022/03/27 08:44:13;;;;;;;23.95;7.35;;;;;;;34.67;27.38;98198.31;4948655;29;20102;-66
2022/03/27 08:46:57;;;;;;;34.55;8.05;;;;;;;34.66;27.05;98192.16;4931395;29;20122;-68
2022/03/27 08:49:52;;;;;;;27.85;7.90;;;;;;;34.59;26.01;98190.53;4949344;29;20062;-66
2022/03/27 08:52:52;;;;;;;35.17;7.85;;;;;;;34.42;26.42;98180.28;4947826;29;20047;-66
2022/03/27 08:56:06;;;;;;;34.92;7.15;;;;;;;34.38;23.69;98171.06;4949790;29;20059;-64
2022/03/27 08:58:47;;;;;;;17.67;6.32;;;;;;;34.46;24.18;98168.16;4946910;29;20094;-64
2022/03/27 09:01:36;;;;;;;34.22;6.72;;;;;;;34.46;25.16;98164.66;4948382;29;20428;-65
2022/03/27 09:04:18;;;;;;;25.77;6.68;;;;;;;34.42;24.64;98153.53;4949947;29;20075;-66
2022/03/27 09:07:07;;;;;;;28.40;7.57;;;;;;;34.34;27.83;98151.09;4946598;29;20562;-66
2022/03/27 09:10:00;;;;;;;22.63;8.70;;;;;;;34.19;29.09;98145.13;4948819;29;20062;-66
2022/03/27 09:12:44;;;;;;;22.42;7.63;;;;;;;34.16;27.64;98137.53;4947163;29;20058;-67
2022/03/27 09:15:39;;;;;;;34.58;9.20;;;;;;;34.10;28.23;98133.84;4949726;29;20105;-66
2022/03/27 09:18:21;;;;;;;18.08;7.75;;;;;;;34.07;27.03;98144.16;4946676;29;20153;-67
2022/03/27 09:21:10;;;;;;;18.70;7.15;;;;;;;34.08;23.07;98135.09;4949810;29;20055;-67
2022/03/27 09:24:03;;;;;;;34.78;9.45;;;;;;;34.09;24.48;98131.38;4952369;28;20051;-66
2022/03/27 09:27:05;;;;;;;26.27;7.70;;;;;;;34.03;26.04;98126.84;4949750;28;20298;-67
2022/03/27 09:30:06;;;;;;;28.48;7.72;;;;;;;33.88;26.92;98119.06;4953737;28;20047;-67
2022/03/27 09:32:55;;;;;;;26.58;7.93;;;;;;;33.86;26.95;98115.78;4952393;28;20062;-68
2022/03/27 09:35:44;;;;;;;30.75;7.78;;;;;;;33.75;28.56;98113.75;4951486;29;20628;-68
2022/03/27 09:38:26;;;;;;;24.92;7.32;;;;;;;33.66;28.94;98110.44;4950032;29;20051;-67
2022/03/27 09:41:40;;;;;;;25.98;8.68;;;;;;;33.54;29.90;98105.91;4961379;28;20391;-67
2022/03/27 09:44:19;;;;;;;20.40;8.25;;;;;;;33.48;29.32;98102.22;4949267;29;20051;-67
2022/03/27 09:47:10;;;;;;;30.30;9.50;;;;;;;33.40;29.60;98103.25;4931900;29;20553;-67
2022/03/27 09:49:53;;;;;;;36.75;8.73;;;;;;;33.41;29.73;98094.22;4948542;29;20063;-67
2022/03/27 09:52:48;;;;;;;30.75;8.88;;;;;;;33.36;28.88;98094.00;4947988;29;20047;-67
2022/03/27 09:55:24;;;;;;;37.25;9.43;;;;;;;33.59;26.72;98096.25;4946978;29;20047;-66
2022/03/27 09:58:20;;;;;;;29.48;9.43;;;;;;;33.60;28.92;98095.25;4915367;29;20047;-67
2022/03/27 10:01:26;;;;;;;31.00;10.15;;;;;;;33.48;28.58;98083.53;4949275;29;20134;-67
2022/03/27 10:04:21;;;;;;;36.75;17.30;;;;;;;33.36;30.08;98071.81;4949183;29;20497;-68
2022/03/27 10:06:59;;;;;;;82.15;46.45;;;;;;;33.24;28.85;98066.25;4949559;29;20098;-67
2022/03/27 10:09:48;;;;;;;32.30;13.68;;;;;;;33.22;26.98;98072.81;4957482;28;20062;-67
2022/03/27 10:12:37;;;;;;;33.33;10.20;;;;;;;33.46;27.30;98072.22;4946193;28;20036;-65
2022/03/27 10:15:29;;;;;;;42.35;19.77;;;;;;;33.37;27.96;98068.09;4945508;28;20531;-66
2022/03/27 10:18:27;;;;;;;29.90;10.57;;;;;;;33.42;28.34;98065.66;4922122;29;20395;-65
2022/03/27 10:21:16;;;;;;;27.75;9.82;;;;;;;33.35;26.34;98054.97;4912860;29;20062;-66
2022/03/27 10:24:21;;;;;;;33.15;6.93;;;;;;;33.42;27.25;98057.63;4913048;29;20039;-66
2022/03/27 10:27:10;;;;;;;28.42;11.20;;;;;;;33.31;29.14;98056.41;4924115;29;20075;-67
2022/03/27 10:30:00;;;;;;;21.30;8.52;;;;;;;33.27;27.07;98055.19;4926224;29;20142;-66
2022/03/27 10:32:44;;;;;;;22.50;9.13;;;;;;;33.11;29.65;98049.38;4910104;29;20047;-65
2022/03/27 10:35:44;;;;;;;25.15;8.13;;;;;;;32.85;31.11;98053.66;4909681;29;20048;-66
2022/03/27 10:38:43;;;;;;;34.85;8.80;;;;;;;32.86;31.26;98047.31;4923697;29;20048;-66
2022/03/27 10:41:43;;;;;;;38.10;9.23;;;;;;;32.75;33.21;98039.88;4908092;29;20055;-68
2022/03/27 10:44:28;;;;;;;31.00;9.15;;;;;;;32.75;29.93;98041.72;4898391;29;20062;-64
2022/03/27 10:47:18;;;;;;;32.47;7.72;;;;;;;32.82;29.46;98048.72;4903785;29;20048;-65
2022/03/27 10:50:01;;;;;;;41.15;9.02;;;;;;;33.06;28.05;98048.13;4906104;29;20066;-65
2022/03/27 10:52:51;;;;;;;33.05;7.90;;;;;;;32.95;30.00;98037.25;4895293;29;20554;-65
2022/03/27 10:55:48;;;;;;;24.90;8.25;;;;;;;32.80;31.48;98029.44;4916574;29;20119;-65
2022/03/27 10:58:37;;;;;;;28.63;8.02;;;;;;;32.97;30.89;98036.00;4917796;29;20066;-66
2022/03/27 11:01:23;;;;;;;33.22;8.90;;;;;;;32.78;31.13;98041.34;4913370;29;20044;-66
2022/03/27 11:04:18;;;;;;;31.50;8.25;;;;;;;32.77;31.01;98029.84;4915798;29;20103;-66
2022/03/27 11:07:21;;;;;;;34.30;8.88;;;;;;;32.83;29.33;98036.22;4920250;29;20511;-66
2022/03/27 11:10:49;;;;;;;30.55;8.77;;;;;;;32.88;27.50;98037.25;4918077;29;20074;-67
2022/03/27 11:13:31;;;;;;;26.73;8.60;;;;;;;32.81;28.64;98035.56;4908303;29;20479;-66
2022/03/27 11:16:22;;;;;;;21.85;8.73;;;;;;;32.92;28.85;98033.16;4920244;29;20115;-66
2022/03/27 11:19:48;;;;;;;22.45;7.55;;;;;;;32.62;32.10;98032.66;4934469;28;20621;-65
2022/03/27 11:22:44;;;;;;;22.90;7.00;;;;;;;32.42;30.96;98036.28;4932717;28;20066;-66
2022/03/27 11:25:41;;;;;;;27.47;8.10;;;;;;;32.30;33.76;98026.22;4941960;28;20051;-66
2022/03/27 11:28:26;;;;;;;23.33;7.45;;;;;;;32.18;31.92;98035.78;4937597;28;20317;-66
2022/03/27 11:31:18;;;;;;;28.33;7.13;;;;;;;32.12;31.94;98025.06;4925447;28;20051;-66
2022/03/27 11:34:14;;;;;;;31.83;7.65;;;;;;;32.10;29.12;98024.44;4934190;29;20052;-66
2022/03/27 11:37:31;;;;;;;23.90;7.38;;;;;;;32.08;32.59;98019.34;4923318;29;20059;-66
2022/03/27 11:40:51;;;;;;;33.15;8.57;;;;;;;32.23;28.52;98022.69;4917625;29;20469;-66
2022/03/27 11:43:40;;;;;;;28.15;7.82;;;;;;;31.97;32.04;98025.22;4946641;28;20058;-66
2022/03/27 11:46:31;;;;;;;22.42;6.90;;;;;;;31.89;33.14;98014.72;4946186;29;20047;-67
2022/03/27 11:49:17;;;;;;;20.38;6.32;;;;;;;31.70;35.59;98010.91;4906743;29;20134;-66
2022/03/27 11:52:23;;;;;;;25.65;6.93;;;;;;;31.61;34.29;98019.25;4945851;28;20098;-67
2022/03/27 11:55:08;;;;;;;20.00;6.65;;;;;;;31.41;34.56;98022.59;4946477;28;20070;-66
2022/03/27 11:57:59;;;;;;;29.90;7.32;;;;;;;31.31;36.62;98018.63;4953897;29;20043;-66
2022/03/27 12:00:51;;;;;;;25.00;7.72;;;;;;;31.14;36.97;98020.75;4955144;29;20086;-66
2022/03/27 12:03:33;;;;;;;32.90;7.68;;;;;;;31.00;37.42;98019.78;4949672;29;20055;-66
2022/03/27 12:06:33;;;;;;;33.75;7.65;;;;;;;30.90;37.15;98018.44;4948434;28;20055;-66
2022/03/27 12:09:08;;;;;;;36.67;7.35;;;;;;;30.85;34.43;98012.88;4931194;29;20055;-66
2022/03/27 12:12:14;;;;;;;20.45;6.63;;;;;;;30.81;38.54;98009.78;4951955;28;20056;-66
2022/03/27 12:15:09;;;;;;;32.00;7.63;;;;;;;30.80;36.43;98000.16;4952952;28;20047;-66
2022/03/27 12:18:03;;;;;;;22.98;6.20;;;;;;;30.61;40.47;98006.94;4948843;28;20510;-67
2022/03/27 12:20:51;;;;;;;27.23;7.10;;;;;;;30.43;39.28;98007.31;4947827;28;20051;-65
2022/03/27 12:23:43;;;;;;;29.98;8.15;;;;;;;30.37;41.16;98012.59;4949337;28;20065;-66
2022/03/27 12:29:49;;;;;;;25.50;7.35;;;;;;;30.12;42.41;98013.91;4929428;28;20052;-66
2022/03/27 12:32:31;;;;;;;25.83;7.72;;;;;;;29.96;41.71;98018.44;4935551;28;20062;-66
2022/03/27 12:35:28;;;;;;;15.57;6.70;;;;;;;29.85;44.14;98010.09;4947203;29;20055;-66
2022/03/27 12:38:10;;;;;;;29.88;8.07;;;;;;;29.73;42.47;98012.38;4950691;28;20066;-66
2022/03/27 12:40:59;;;;;;;27.10;7.40;;;;;;;29.63;42.71;98012.63;4948350;28;20082;-66
2022/03/27 12:44:05;;;;;;;29.35;7.82;;;;;;;29.54;40.00;98013.72;4953346;28;20047;-65
2022/03/27 12:46:49;;;;;;;28.77;8.73;;;;;;;29.49;43.11;98009.97;4948648;29;20048;-66
2022/03/27 12:49:51;;;;;;;26.83;8.55;;;;;;;29.37;42.75;98014.94;4950762;28;20059;-64
2022/03/27 12:52:40;;;;;;;17.02;7.55;;;;;;;29.30;47.36;98019.25;4946640;29;20050;-65
2022/03/27 12:55:26;;;;;;;25.88;8.23;;;;;;;29.18;47.24;98018.06;4949371;28;20067;-66
2022/03/27 12:58:14;;;;;;;35.88;9.88;;;;;;;29.05;45.69;98029.28;4934190;29;20047;-66